Airfield :
LOGIN :

Register | Disclaimer

   EN    FR    IT 

 










Legend :    VFR   Marginal VFR   IFR   Intensive IFR   Very Intensive IFR
Visi :
Ceiling :
>= 8 km
>= 3000ft
5 to 8 km
1000 to 3000 ft
1500m to 5 km
500 to 1000 ft
800 to 1500m
200 to 500 ft
< 800m
< 200 ft
Symbols :   Thunderstorms  Fog  Heavy snow  Heavy precipitations  Wind > 20 kt
SIGMETs :     Misc.  Thunderstorms  Icing  Turbulence  Mountain Waves  Volcanic Ashes







- Airport Elevation : 876 ft
- IATA code : MBX


LJMB - Maribor

CURRENT METAR :
  • 230500Z 22006KT 9999 -RA FEW010 BKN040 05/03 Q1019

EXPIRED METARs :
  • 230430Z 22005KT 9999 FEW010 BKN039 BKN086 05/03 Q1019
  • 230400Z 21003KT 180V240 9999 -RA FEW010 BKN018 05/04 Q1018
  • 230330Z AUTO VRB03KT 9999 RA OVC021/// 05/03 Q1019
  • 230300Z AUTO 00000KT 9999 -RA BKN022/// OVC040/// 05/04 Q1018
  • 230230Z AUTO VRB02KT 9999 -RA BKN016/// OVC038/// 05/03 Q1018 RERA

TAF TAF LJMB
Valid from the 23 at 03:00 until the 24 at 03:00 UTC


230200Z 2303/2403 03005KT 9999 FEW050 BKN070
TEMPO 2303/2306 03010KT -RA SCT015 BKN040
BECMG 2306/2309 FEW040 SCT080
PROB40
TEMPO 2309/2316 03010KT -SHRA SCT050TCU BKN070
No reported NOTAMs for that airfield.



MET'MAP, your aeronautical weather chart ! - Copyright ORBIFLY December 2007 - Disclaimer

ORBIFLY MET'MAP TEAM :

Programming & Development : Alexandra Zaïnal
Concept & Development : Baudouin d'Aumeries
Co-Development & Prog : Marc-Olivier Méhu
Technical & hardware support : Manuel Goepfert

Contact : metmap@orbifly.com




SOURCES & CREDITS :

   NOAA